Time;durP1;ratioP1;P1;durP2;ratioP2;P2;SDS_P1;SDS_P2;PMS_P1;PMS_P2;Temp;Humidity;BMP_temperature;BMP_pressure;BME280_temperature;BME280_humidity;BME280_pressure;Samples;Min_cycle;Max_cycle;Signal;HPM_P1;HPM_P2
2022/05/24 00:00:46;;;;;;;14.88;5.30;;;;;;;;;;5055291;28;20074;-62
2022/05/24 00:03:12;;;;;;;10.25;4.40;;;;;;;;;;5055640;28;20033;-62
2022/05/24 00:05:38;;;;;;;11.75;5.22;;;;;;;;;;5055296;28;20028;-63
2022/05/24 00:08:05;;;;;;;9.20;5.40;;;;;;;;;;5055084;28;20029;-63
2022/05/24 00:10:32;;;;;;;6.45;4.68;;;;;;;;;;5055002;28;20052;-63
2022/05/24 00:12:58;;;;;;;9.23;5.03;;;;;;;;;;5054977;28;20048;-63
2022/05/24 00:15:32;;;;;;;11.98;5.70;;;;;;;;;;5054570;28;20021;-63
2022/05/24 00:18:03;;;;;;;9.60;5.15;;;;;;;;;;5054812;28;20124;-63
2022/05/24 00:20:31;;;;;;;11.13;4.80;;;;;;;;;;5054591;28;20070;-63
2022/05/24 00:22:58;;;;;;;10.38;5.10;;;;;;;;;;5054856;28;20469;-63
2022/05/24 00:25:24;;;;;;;12.75;5.03;;;;;;;;;;5055409;28;20024;-63
2022/05/24 00:27:50;;;;;;;7.68;4.53;;;;;;;;;;5055474;28;20017;-63
2022/05/24 00:30:17;;;;;;;11.73;5.18;;;;;;;;;;5055317;28;20025;-63
2022/05/24 00:32:44;;;;;;;10.75;4.50;;;;;;;;;;5055302;28;20021;-63
2022/05/24 00:35:10;;;;;;;8.27;4.65;;;;;;;;;;5055378;28;20076;-62
2022/05/24 00:37:38;;;;;;;10.73;5.22;;;;;;;;;;5054996;28;20025;-63
2022/05/24 00:40:04;;;;;;;8.90;5.10;;;;;;;;;;5055138;28;20025;-63
2022/05/24 00:42:32;;;;;;;14.70;5.38;;;;;;;;;;5054914;28;20021;-63
2022/05/24 00:45:05;;;;;;;10.00;4.63;;;;;;;;;;5055153;28;20416;-63
2022/05/24 00:47:33;;;;;;;8.10;4.90;;;;;;;;;;5055081;28;20422;-63
2022/05/24 00:50:05;;;;;;;13.07;4.53;;;;;;;;;;5055012;28;20087;-62
2022/05/24 00:52:37;;;;;;;7.70;4.38;;;;;;;;;;5055033;28;20104;-63
2022/05/24 00:55:03;;;;;;;7.32;5.00;;;;;;;;;;5054262;28;20037;-63
2022/05/24 00:57:34;;;;;;;10.35;5.10;;;;;;;;;;5052787;28;20033;-64
2022/05/24 01:00:11;;;;;;;10.52;4.63;;;;;;;;;;5050760;28;20059;-63
2022/05/24 01:02:38;;;;;;;14.20;4.82;;;;;;;;;;5050990;28;20033;-63
2022/05/24 01:05:05;;;;;;;6.82;4.93;;;;;;;;;;5051801;28;20044;-63
2022/05/24 01:07:31;;;;;;;12.15;4.93;;;;;;;;;;5053445;28;20021;-62
2022/05/24 01:10:00;;;;;;;13.80;5.00;;;;;;;;;;5054542;28;20548;-63
2022/05/24 01:12:28;;;;;;;12.70;5.70;;;;;;;;;;5054822;28;20436;-63
2022/05/24 01:14:55;;;;;;;14.30;5.35;;;;;;;;;;5054808;28;20420;-62
2022/05/24 01:17:21;;;;;;;9.50;5.63;;;;;;;;;;5054532;28;20033;-63
2022/05/24 01:19:48;;;;;;;13.82;4.88;;;;;;;;;;5054327;28;20108;-63
2022/05/24 01:22:24;;;;;;;12.32;5.47;;;;;;;;;;5054017;28;20111;-63
2022/05/24 01:24:57;;;;;;;13.75;5.65;;;;;;;;;;5054453;28;20082;-63
2022/05/24 01:27:23;;;;;;;12.48;5.50;;;;;;;;;;5054267;28;20151;-63
2022/05/24 01:29:49;;;;;;;9.23;5.43;;;;;;;;;;5054252;28;20480;-63
2022/05/24 01:37:45;;;;;;;10.90;5.60;;;;;;;;;;5053741;28;20047;-63
2022/05/24 01:40:11;;;;;;;8.85;5.07;;;;;;;;;;5050951;28;20045;-63
2022/05/24 01:42:37;;;;;;;7.10;4.85;;;;;;;;;;5051236;28;20039;-63
2022/05/24 01:45:10;;;;;;;8.10;4.60;;;;;;;;;;5050489;28;20413;-63
2022/05/24 01:47:36;;;;;;;8.50;4.78;;;;;;;;;;5050510;28;20086;-63
2022/05/24 01:50:05;;;;;;;8.32;4.68;;;;;;;;;;5051076;28;20060;-63
2022/05/24 01:52:37;;;;;;;10.57;5.00;;;;;;;;;;5050216;28;20052;-63
2022/05/24 01:55:06;;;;;;;11.27;4.65;;;;;;;;;;5050465;28;20064;-63
2022/05/24 01:57:34;;;;;;;9.88;4.50;;;;;;;;;;5050273;28;20033;-63
2022/05/24 02:00:03;;;;;;;9.80;4.63;;;;;;;;;;5050585;28;20040;-63
2022/05/24 02:02:29;;;;;;;6.85;4.80;;;;;;;;;;5050416;28;20025;-63
2022/05/24 02:04:55;;;;;;;11.48;4.68;;;;;;;;;;5050195;28;20029;-63
2022/05/24 02:07:23;;;;;;;11.55;5.30;;;;;;;;;;5050554;28;20021;-63
2022/05/24 02:09:50;;;;;;;11.68;4.55;;;;;;;;;;5049531;28;20111;-63
2022/05/24 02:12:19;;;;;;;8.40;5.32;;;;;;;;;;5050462;28;20029;-63
2022/05/24 02:14:54;;;;;;;8.82;4.47;;;;;;;;;;5050515;28;20115;-63
2022/05/24 02:17:22;;;;;;;14.45;5.13;;;;;;;;;;5050853;28;20082;-63
2022/05/24 02:19:50;;;;;;;8.02;4.55;;;;;;;;;;5050999;28;20107;-63
2022/05/24 02:22:21;;;;;;;9.60;4.22;;;;;;;;;;5049832;28;20050;-63
2022/05/24 02:24:54;;;;;;;7.93;4.30;;;;;;;;;;5049922;28;20025;-63
2022/05/24 02:27:20;;;;;;;6.32;4.43;;;;;;;;;;5051035;28;20079;-63
2022/05/24 02:29:46;;;;;;;8.27;4.90;;;;;;;;;;5050420;28;20025;-63
2022/05/24 02:32:12;;;;;;;9.35;4.82;;;;;;;;;;5051570;28;20469;-63
2022/05/24 02:34:38;;;;;;;8.73;4.40;;;;;;;;;;5051719;28;20025;-63
2022/05/24 02:37:04;;;;;;;9.05;5.18;;;;;;;;;;5052799;28;20537;-62
2022/05/24 02:41:28;;;;;;;11.00;4.97;;;;;;;;;;5052744;28;20056;-62
2022/05/24 02:42:16;;;;;;;7.38;4.53;;;;;;;;;;5052932;28;20035;-63
2022/05/24 02:44:42;;;;;;;9.25;4.75;;;;;;;;;;5053130;28;20025;-62
2022/05/24 02:47:08;;;;;;;10.18;4.60;;;;;;;;;;5052737;28;20025;-62
2022/05/24 02:49:34;;;;;;;9.88;4.03;;;;;;;;;;5052793;28;20367;-63
2022/05/24 02:52:00;;;;;;;9.65;4.63;;;;;;;;;;5052734;28;20100;-63
2022/05/24 02:54:26;;;;;;;7.03;3.95;;;;;;;;;;5052736;28;20051;-63
2022/05/24 02:56:52;;;;;;;9.93;4.43;;;;;;;;;;5052504;28;20127;-62
2022/05/24 02:59:18;;;;;;;6.80;3.78;;;;;;;;;;5052369;28;20151;-63
2022/05/24 03:01:44;;;;;;;7.25;4.05;;;;;;;;;;5052810;28;20057;-63
2022/05/24 03:04:10;;;;;;;10.23;4.00;;;;;;;;;;5052828;28;20025;-62
2022/05/24 03:09:35;;;;;;;6.75;3.70;;;;;;;;;;5050278;28;20402;-62
2022/05/24 03:14:46;;;;;;;8.30;4.32;;;;;;;;;;5051912;28;20082;-62
2022/05/24 03:17:12;;;;;;;9.45;4.40;;;;;;;;;;5052075;28;20069;-63
2022/05/24 03:19:38;;;;;;;14.15;4.47;;;;;;;;;;5051909;28;20061;-63
2022/05/24 03:22:05;;;;;;;9.68;3.83;;;;;;;;;;5055943;28;20428;-62
2022/05/24 03:24:31;;;;;;;7.28;3.90;;;;;;;;;;5055833;28;20037;-63
2022/05/24 03:26:57;;;;;;;10.15;4.32;;;;;;;;;;5055453;28;20032;-63
2022/05/24 03:29:23;;;;;;;8.05;3.72;;;;;;;;;;5055470;28;20030;-63
2022/05/24 03:31:49;;;;;;;9.15;3.97;;;;;;;;;;5055915;28;20025;-63
2022/05/24 03:34:15;;;;;;;7.53;4.28;;;;;;;;;;5055828;28;20477;-62
2022/05/24 03:36:41;;;;;;;8.32;4.03;;;;;;;;;;5056453;28;20029;-62
2022/05/24 03:39:07;;;;;;;12.50;4.55;;;;;;;;;;5056335;28;20087;-63
2022/05/24 03:41:33;;;;;;;12.95;4.70;;;;;;;;;;5056215;28;20049;-63
2022/05/24 03:43:59;;;;;;;7.40;4.45;;;;;;;;;;5056493;28;20059;-63
2022/05/24 03:46:25;;;;;;;8.07;4.13;;;;;;;;;;5056279;28;20037;-63
2022/05/24 03:48:51;;;;;;;12.68;4.50;;;;;;;;;;5056274;28;20519;-62
2022/05/24 03:51:17;;;;;;;9.95;4.10;;;;;;;;;;5056097;28;20024;-62
2022/05/24 03:53:43;;;;;;;7.57;4.40;;;;;;;;;;5056256;28;21077;-62
2022/05/24 03:56:10;;;;;;;11.15;4.20;;;;;;;;;;5056124;28;20029;-62
2022/05/24 03:58:36;;;;;;;8.27;3.92;;;;;;;;;;5055822;28;20470;-63
2022/05/24 04:01:02;;;;;;;15.18;4.97;;;;;;;;;;5055093;28;20028;-62
2022/05/24 04:03:28;;;;;;;9.32;4.05;;;;;;;;;;5054776;28;20029;-63
2022/05/24 04:05:54;;;;;;;9.30;4.55;;;;;;;;;;5054920;28;20107;-62
2022/05/24 04:08:24;;;;;;;9.32;3.78;;;;;;;;;;5054436;28;20456;-63
2022/05/24 04:10:51;;;;;;;12.23;4.65;;;;;;;;;;5053799;28;20083;-62
2022/05/24 04:13:17;;;;;;;7.80;4.32;;;;;;;;;;5054418;28;20040;-62
2022/05/24 04:15:43;;;;;;;9.18;4.70;;;;;;;;;;5054295;28;20021;-62
2022/05/24 04:18:09;;;;;;;7.93;4.28;;;;;;;;;;5055049;28;20037;-62
2022/05/24 04:20:35;;;;;;;9.73;4.97;;;;;;;;;;5054820;28;20167;-62
2022/05/24 04:23:02;;;;;;;10.55;4.90;;;;;;;;;;5054187;28;20033;-63
2022/05/24 04:25:30;;;;;;;7.68;4.30;;;;;;;;;;5054337;28;20470;-62
2022/05/24 04:27:56;;;;;;;9.32;4.15;;;;;;;;;;5054826;28;20029;-62
2022/05/24 04:30:22;;;;;;;12.40;3.95;;;;;;;;;;5055023;28;20207;-63
2022/05/24 04:32:48;;;;;;;7.75;4.13;;;;;;;;;;5054179;28;20051;-62
2022/05/24 04:35:14;;;;;;;8.32;4.82;;;;;;;;;;5054719;28;20025;-63
2022/05/24 04:37:40;;;;;;;9.98;4.38;;;;;;;;;;5054240;28;20083;-63
2022/05/24 04:40:07;;;;;;;13.10;4.40;;;;;;;;;;5054526;28;20028;-62
2022/05/24 04:42:33;;;;;;;11.55;4.28;;;;;;;;;;5054871;28;20074;-63
2022/05/24 04:45:01;;;;;;;8.15;4.50;;;;;;;;;;5054781;28;20108;-62
2022/05/24 04:47:28;;;;;;;10.60;5.25;;;;;;;;;;5054673;28;20409;-63
2022/05/24 04:49:55;;;;;;;9.32;4.20;;;;;;;;;;5053875;28;20035;-63
2022/05/24 04:52:23;;;;;;;12.70;4.85;;;;;;;;;;5054376;28;20036;-63
2022/05/24 04:54:50;;;;;;;9.60;4.53;;;;;;;;;;5054548;28;20473;-63
2022/05/24 04:57:17;;;;;;;14.13;4.82;;;;;;;;;;5054843;28;20044;-63
2022/05/24 04:59:43;;;;;;;10.80;4.88;;;;;;;;;;5055005;28;20470;-62
2022/05/24 05:02:09;;;;;;;13.88;4.50;;;;;;;;;;5054859;28;20029;-63
2022/05/24 05:04:35;;;;;;;7.30;4.00;;;;;;;;;;5054757;28;20032;-63
2022/05/24 05:07:01;;;;;;;15.57;4.60;;;;;;;;;;5053234;28;20039;-63
2022/05/24 05:09:34;;;;;;;11.63;4.72;;;;;;;;;;5053443;28;20037;-63
2022/05/24 05:12:00;;;;;;;11.18;4.78;;;;;;;;;;5054047;28;20025;-63
2022/05/24 05:14:26;;;;;;;8.93;4.80;;;;;;;;;;5054427;28;20086;-63
2022/05/24 05:16:52;;;;;;;9.32;4.40;;;;;;;;;;5054537;28;20458;-63
2022/05/24 05:19:18;;;;;;;12.68;4.65;;;;;;;;;;5054262;28;20041;-63
2022/05/24 05:21:45;;;;;;;8.27;4.20;;;;;;;;;;5054339;28;20021;-63
2022/05/24 05:24:11;;;;;;;9.98;4.68;;;;;;;;;;5054362;28;20033;-63
2022/05/24 05:26:37;;;;;;;9.75;4.72;;;;;;;;;;5054611;28;20470;-63
2022/05/24 05:29:04;;;;;;;8.25;4.82;;;;;;;;;;5054341;28;20036;-63
2022/05/24 05:31:30;;;;;;;11.68;4.45;;;;;;;;;;5054314;28;20029;-63
2022/05/24 05:33:58;;;;;;;6.35;4.30;;;;;;;;;;5054197;28;20029;-63
2022/05/24 05:36:24;;;;;;;12.25;5.03;;;;;;;;;;5054091;28;20090;-62
2022/05/24 05:38:50;;;;;;;9.70;4.93;;;;;;;;;;5054019;28;20039;-63
2022/05/24 05:41:18;;;;;;;11.57;4.63;;;;;;;;;;5054086;28;20056;-63
2022/05/24 05:43:44;;;;;;;11.93;4.53;;;;;;;;;;5053127;28;20029;-63
2022/05/24 05:46:11;;;;;;;13.43;5.32;;;;;;;;;;5054002;28;20021;-63
2022/05/24 05:48:37;;;;;;;13.23;4.80;;;;;;;;;;5053899;28;20025;-62
2022/05/24 05:51:04;;;;;;;10.10;5.50;;;;;;;;;;5053879;28;20419;-63
2022/05/24 05:53:30;;;;;;;23.67;5.47;;;;;;;;;;5053713;28;20049;-63
2022/05/24 05:55:57;;;;;;;14.90;4.75;;;;;;;;;;5054053;28;20021;-63
2022/05/24 05:58:23;;;;;;;14.80;4.95;;;;;;;;;;5054067;28;20401;-63
2022/05/24 06:00:49;;;;;;;14.65;5.00;;;;;;;;;;5053820;28;20017;-63
2022/05/24 06:03:20;;;;;;;12.32;5.80;;;;;;;;;;5053591;28;20044;-63
2022/05/24 06:05:48;;;;;;;16.63;5.05;;;;;;;;;;5053648;28;20096;-63
2022/05/24 06:08:14;;;;;;;17.95;6.13;;;;;;;;;;5053965;28;20366;-63
2022/05/24 06:10:40;;;;;;;14.45;5.55;;;;;;;;;;5053618;28;20528;-63
2022/05/24 06:13:06;;;;;;;14.43;4.70;;;;;;;;;;5053573;28;20200;-63
2022/05/24 06:15:33;;;;;;;11.30;5.75;;;;;;;;;;5053751;28;20025;-63
2022/05/24 06:17:59;;;;;;;13.07;5.18;;;;;;;;;;5053289;28;20036;-63
2022/05/24 06:20:27;;;;;;;10.90;5.57;;;;;;;;;;5053560;28;20057;-63
2022/05/24 06:22:54;;;;;;;10.00;4.85;;;;;;;;;;5053433;28;20020;-63
2022/05/24 06:25:21;;;;;;;9.90;4.90;;;;;;;;;;5053471;28;20021;-63
2022/05/24 06:27:47;;;;;;;11.55;5.10;;;;;;;;;;5053212;28;20021;-63
2022/05/24 06:30:13;;;;;;;16.77;5.03;;;;;;;;;;5053244;28;20029;-63
2022/05/24 06:32:39;;;;;;;10.48;5.30;;;;;;;;;;5053280;28;20358;-63
2022/05/24 06:35:06;;;;;;;15.95;5.00;;;;;;;;;;5053621;28;20024;-63
2022/05/24 06:37:32;;;;;;;8.60;5.03;;;;;;;;;;5053115;28;20200;-63
2022/05/24 06:39:58;;;;;;;16.05;5.20;;;;;;;;;;5053059;28;20131;-63
2022/05/24 06:42:24;;;;;;;9.30;4.93;;;;;;;;;;5052373;28;20021;-63
2022/05/24 06:44:50;;;;;;;11.30;5.15;;;;;;;;;;5052648;28;20511;-63
2022/05/24 06:47:16;;;;;;;17.17;4.75;;;;;;;;;;5052947;28;20071;-63
2022/05/24 06:49:43;;;;;;;15.40;4.95;;;;;;;;;;5053024;28;20108;-63
2022/05/24 06:52:09;;;;;;;7.57;4.40;;;;;;;;;;5052450;28;20056;-63
2022/05/24 06:54:35;;;;;;;8.88;4.25;;;;;;;;;;5052342;28;20052;-63
2022/05/24 06:57:02;;;;;;;11.52;4.40;;;;;;;;;;5052542;28;20417;-63
2022/05/24 07:02:27;;;;;;;13.07;4.47;;;;;;;;;;5053194;28;20131;-63
2022/05/24 07:05:00;;;;;;;9.32;4.45;;;;;;;;;;5052820;28;20385;-63
2022/05/24 07:07:27;;;;;;;9.55;4.00;;;;;;;;;;5052791;28;20020;-63
2022/05/24 07:09:54;;;;;;;11.55;4.45;;;;;;;;;;5052545;28;20029;-63
2022/05/24 07:12:21;;;;;;;9.65;4.32;;;;;;;;;;5053170;28;20425;-63
2022/05/24 07:14:47;;;;;;;10.25;4.25;;;;;;;;;;5052849;28;20100;-63
2022/05/24 07:17:14;;;;;;;9.13;4.25;;;;;;;;;;5052584;28;20025;-63
2022/05/24 07:19:40;;;;;;;13.07;3.88;;;;;;;;;;5052608;28;20029;-63
2022/05/24 07:22:06;;;;;;;9.20;4.15;;;;;;;;;;5052603;28;20021;-62
2022/05/24 07:24:33;;;;;;;9.43;3.97;;;;;;;;;;5052461;28;20176;-63
2022/05/24 07:26:59;;;;;;;9.73;4.20;;;;;;;;;;5052459;28;20033;-64
2022/05/24 07:29:26;;;;;;;7.70;3.78;;;;;;;;;;5052454;28;20103;-63
2022/05/24 07:31:52;;;;;;;7.03;4.10;;;;;;;;;;5052650;28;20035;-63
2022/05/24 07:34:19;;;;;;;11.68;4.07;;;;;;;;;;5052613;28;20051;-63
2022/05/24 07:36:45;;;;;;;8.95;3.88;;;;;;;;;;5052488;28;20453;-63
2022/05/24 07:39:11;;;;;;;13.60;4.55;;;;;;;;;;5052491;28;20102;-63
2022/05/24 07:47:09;;;;;;;9.05;3.70;;;;;;;;;;5052851;28;20103;-63
2022/05/24 07:49:36;;;;;;;10.30;4.05;;;;;;;;;;5051628;28;20032;-64
2022/05/24 07:52:02;;;;;;;9.00;3.85;;;;;;;;;;5051582;28;20078;-63
2022/05/24 07:54:28;;;;;;;14.75;4.03;;;;;;;;;;5051774;28;20052;-63
2022/05/24 07:56:54;;;;;;;12.35;4.35;;;;;;;;;;5052493;28;20031;-64
2022/05/24 07:59:20;;;;;;;11.75;3.90;;;;;;;;;;5052395;28;20129;-63
2022/05/24 08:01:46;;;;;;;8.80;4.20;;;;;;;;;;5052405;28;20461;-63
2022/05/24 08:04:12;;;;;;;9.77;3.60;;;;;;;;;;5052241;28;20029;-63
2022/05/24 08:06:38;;;;;;;7.85;3.30;;;;;;;;;;5052132;28;20017;-63
2022/05/24 08:09:05;;;;;;;11.20;3.30;;;;;;;;;;5055996;28;20393;-63
2022/05/24 08:11:31;;;;;;;14.00;3.60;;;;;;;;;;5055897;28;20025;-63
2022/05/24 08:13:59;;;;;;;11.57;3.47;;;;;;;;;;5055937;28;20029;-63
2022/05/24 08:16:27;;;;;;;12.00;4.60;;;;;;;;;;5055849;28;20096;-64
2022/05/24 08:18:53;;;;;;;12.52;3.40;;;;;;;;;;5055240;28;20086;-63
2022/05/24 08:21:20;;;;;;;15.43;3.78;;;;;;;;;;5055600;28;20067;-63
2022/05/24 08:23:46;;;;;;;13.15;3.42;;;;;;;;;;5055639;28;20033;-63
2022/05/24 08:26:12;;;;;;;7.60;3.00;;;;;;;;;;5055928;28;20025;-63
2022/05/24 08:28:41;;;;;;;7.70;3.15;;;;;;;;;;5055354;28;20036;-64
2022/05/24 08:31:07;;;;;;;7.95;3.38;;;;;;;;;;5055526;28;20029;-64
2022/05/24 08:33:33;;;;;;;9.63;3.88;;;;;;;;;;5055451;28;20025;-64
2022/05/24 08:35:59;;;;;;;12.88;3.50;;;;;;;;;;5055638;28;20056;-63
2022/05/24 08:38:28;;;;;;;8.93;3.08;;;;;;;;;;5055691;28;20060;-64
2022/05/24 08:40:56;;;;;;;14.88;3.40;;;;;;;;;;5055393;28;20025;-63
2022/05/24 08:43:22;;;;;;;11.77;3.03;;;;;;;;;;5055202;28;20035;-63
2022/05/24 08:48:41;;;;;;;12.35;3.00;;;;;;;;;;5055817;28;20043;-63
2022/05/24 08:51:07;;;;;;;13.18;4.07;;;;;;;;;;5054832;28;20025;-64
2022/05/24 08:53:38;;;;;;;7.68;2.80;;;;;;;;;;5054865;28;20094;-63
2022/05/24 08:56:08;;;;;;;10.10;3.03;;;;;;;;;;5054961;28;20029;-68
2022/05/24 08:58:36;;;;;;;11.25;3.35;;;;;;;;;;5054632;28;20025;-64
2022/05/24 09:01:02;;;;;;;10.95;3.05;;;;;;;;;;5054771;28;20025;-64
2022/05/24 09:03:28;;;;;;;9.70;3.35;;;;;;;;;;5054726;28;20397;-63
2022/05/24 09:06:03;;;;;;;13.00;3.50;;;;;;;;;;5054757;28;20082;-64
2022/05/24 09:08:38;;;;;;;10.93;3.22;;;;;;;;;;5054988;28;20029;-64
2022/05/24 09:11:16;;;;;;;9.52;2.90;;;;;;;;;;5054636;28;20058;-66
2022/05/24 09:13:54;;;;;;;7.45;3.08;;;;;;;;;;5053639;28;20051;-64
2022/05/24 09:16:22;;;;;;;8.65;3.45;;;;;;;;;;5054123;28;20504;-63
2022/05/24 09:18:48;;;;;;;13.32;3.20;;;;;;;;;;5054319;28;20040;-64
2022/05/24 09:21:19;;;;;;;8.00;3.10;;;;;;;;;;5054554;28;20025;-64
2022/05/24 09:23:48;;;;;;;11.40;3.30;;;;;;;;;;5054964;28;20029;-64
2022/05/24 09:26:20;;;;;;;10.43;3.30;;;;;;;;;;5054497;28;20366;-64
2022/05/24 09:28:49;;;;;;;10.63;3.13;;;;;;;;;;5054673;28;20028;-64
2022/05/24 09:31:27;;;;;;;13.52;3.40;;;;;;;;;;5053290;28;20071;-64
2022/05/24 09:33:58;;;;;;;15.77;3.17;;;;;;;;;;5053848;28;20035;-64
2022/05/24 09:36:33;;;;;;;10.02;3.50;;;;;;;;;;5054095;28;20108;-64
2022/05/24 09:38:59;;;;;;;11.00;3.20;;;;;;;;;;5053988;28;20052;-64
2022/05/24 09:41:25;;;;;;;12.05;2.95;;;;;;;;;;5054075;28;20025;-64
2022/05/24 09:44:00;;;;;;;12.65;3.53;;;;;;;;;;5054023;28;20108;-64
2022/05/24 09:46:28;;;;;;;10.40;3.35;;;;;;;;;;5053724;28;20029;-64
2022/05/24 09:49:01;;;;;;;6.68;3.05;;;;;;;;;;5054139;28;20104;-64
2022/05/24 09:51:31;;;;;;;10.27;3.05;;;;;;;;;;5054032;28;20377;-64
2022/05/24 09:53:57;;;;;;;6.45;3.03;;;;;;;;;;5053731;28;20049;-63
2022/05/24 09:56:26;;;;;;;8.38;3.10;;;;;;;;;;5054024;28;20021;-63
2022/05/24 09:58:52;;;;;;;16.30;3.15;;;;;;;;;;5053700;28;20094;-64
2022/05/24 10:01:40;;;;;;;7.88;3.08;;;;;;;;;;5053682;28;20083;-64
2022/05/24 10:04:17;;;;;;;16.08;4.03;;;;;;;;;;5053761;28;20033;-66
2022/05/24 10:06:53;;;;;;;10.27;2.88;;;;;;;;;;5053441;28;20033;-63
2022/05/24 10:09:19;;;;;;;16.88;3.05;;;;;;;;;;5053127;28;20025;-64
2022/05/24 10:11:51;;;;;;;17.63;3.05;;;;;;;;;;5053422;28;20074;-63
2022/05/24 10:14:37;;;;;;;9.98;3.00;;;;;;;;;;5053623;28;20472;-63
2022/05/24 10:17:03;;;;;;;7.78;2.60;;;;;;;;;;5053346;28;20033;-67
2022/05/24 10:19:41;;;;;;;10.88;3.10;;;;;;;;;;5053491;28;20565;-64
2022/05/24 10:22:27;;;;;;;8.43;2.63;;;;;;;;;;5053431;28;20537;-63
2022/05/24 10:24:59;;;;;;;8.95;3.17;;;;;;;;;;5062001;28;20033;-64
2022/05/24 10:27:38;;;;;;;9.45;3.90;;;;;;;;;;5053477;28;20037;-63
2022/05/24 10:30:16;;;;;;;8.52;2.80;;;;;;;;;;5052904;28;20100;-63
2022/05/24 10:38:52;;;;;;;7.25;2.70;;;;;;;;;;5053054;28;20047;-63
2022/05/24 10:41:22;;;;;;;6.82;2.53;;;;;;;;;;5053133;28;20178;-63
2022/05/24 10:43:57;;;;;;;7.90;2.50;;;;;;;;;;5052862;28;20048;-64
2022/05/24 10:46:43;;;;;;;8.93;3.10;;;;;;;;;;5051911;28;20102;-63
2022/05/24 10:49:16;;;;;;;9.45;2.75;;;;;;;;;;5055046;28;20641;-66
2022/05/24 10:51:52;;;;;;;8.13;2.80;;;;;;;;;;5052709;28;20474;-63
2022/05/24 10:54:43;;;;;;;6.03;2.45;;;;;;;;;;5052676;28;20124;-64
2022/05/24 10:57:12;;;;;;;5.18;2.55;;;;;;;;;;5052684;28;20370;-63
2022/05/24 10:59:58;;;;;;;9.48;2.97;;;;;;;;;;5052325;28;20123;-64
2022/05/24 11:02:24;;;;;;;13.20;2.90;;;;;;;;;;5052420;28;20029;-64
2022/05/24 11:04:58;;;;;;;12.20;2.65;;;;;;;;;;5052625;28;20498;-65
2022/05/24 11:07:26;;;;;;;7.45;2.60;;;;;;;;;;5051114;28;20370;-63
2022/05/24 11:09:59;;;;;;;6.45;2.47;;;;;;;;;;5052475;28;20436;-63
2022/05/24 11:12:28;;;;;;;14.25;2.72;;;;;;;;;;5052561;28;20029;-64
2022/05/24 11:15:01;;;;;;;10.40;2.72;;;;;;;;;;5052303;28;20032;-63
2022/05/24 11:17:27;;;;;;;9.38;2.70;;;;;;;;;;5052342;28;20104;-64
2022/05/24 11:19:55;;;;;;;10.45;2.97;;;;;;;;;;5052445;28;20500;-64
2022/05/24 11:22:40;;;;;;;8.00;3.40;;;;;;;;;;5052605;28;20024;-64
2022/05/24 11:25:11;;;;;;;8.02;2.70;;;;;;;;;;5052427;28;20033;-68
2022/05/24 11:27:39;;;;;;;10.13;3.13;;;;;;;;;;5052523;28;20025;-63
2022/05/24 11:30:24;;;;;;;9.70;2.80;;;;;;;;;;5052270;28;20059;-67
2022/05/24 11:32:52;;;;;;;8.73;2.70;;;;;;;;;;5052319;28;20473;-66
2022/05/24 11:35:21;;;;;;;9.85;2.67;;;;;;;;;;5052087;28;20547;-66
2022/05/24 11:37:51;;;;;;;11.50;3.78;;;;;;;;;;5052523;28;20113;-63
2022/05/24 11:40:31;;;;;;;5.38;2.60;;;;;;;;;;5052346;28;20029;-63
2022/05/24 11:43:02;;;;;;;13.82;3.28;;;;;;;;;;5053815;28;20021;-64
2022/05/24 11:45:31;;;;;;;17.35;3.85;;;;;;;;;;5055934;28;20079;-68
2022/05/24 11:48:02;;;;;;;7.47;2.75;;;;;;;;;;5055888;28;20067;-65
2022/05/24 11:50:31;;;;;;;11.73;2.97;;;;;;;;;;5055512;28;20104;-66
2022/05/24 11:53:16;;;;;;;12.38;2.38;;;;;;;;;;5054251;28;20580;-65
2022/05/24 11:55:49;;;;;;;7.45;2.47;;;;;;;;;;5055479;28;20051;-66
2022/05/24 11:58:22;;;;;;;9.13;3.00;;;;;;;;;;5053072;28;20072;-66
2022/05/24 12:00:57;;;;;;;14.57;3.28;;;;;;;;;;5054879;28;20028;-66
2022/05/24 12:09:23;;;;;;;9.32;2.55;;;;;;;;;;5053417;28;20040;-68
2022/05/24 12:12:09;;;;;;;12.88;3.22;;;;;;;;;;5057611;28;20044;-65
2022/05/24 12:14:37;;;;;;;8.98;2.65;;;;;;;;;;5052630;28;20028;-66
2022/05/24 12:17:03;;;;;;;11.88;2.90;;;;;;;;;;5054512;28;20029;-66
2022/05/24 12:19:40;;;;;;;8.40;2.40;;;;;;;;;;5053175;28;20517;-66
2022/05/24 12:22:07;;;;;;;11.75;2.90;;;;;;;;;;5053174;28;20037;-66
2022/05/24 12:24:36;;;;;;;16.00;2.80;;;;;;;;;;5054179;28;20473;-66
2022/05/24 12:27:08;;;;;;;9.18;2.58;;;;;;;;;;5054455;28;20117;-66
2022/05/24 12:29:35;;;;;;;13.70;3.03;;;;;;;;;;5054834;28;20565;-66
2022/05/24 12:32:04;;;;;;;16.90;3.03;;;;;;;;;;5054773;28;20056;-66
2022/05/24 12:34:34;;;;;;;7.63;2.60;;;;;;;;;;5054693;28;20150;-66
2022/05/24 12:37:05;;;;;;;10.35;2.92;;;;;;;;;;5054520;28;20021;-66
2022/05/24 12:39:35;;;;;;;15.30;3.05;;;;;;;;;;5054237;28;20037;-66
2022/05/24 12:42:03;;;;;;;12.60;3.67;;;;;;;;;;5054505;28;20374;-66
2022/05/24 12:44:31;;;;;;;12.65;3.22;;;;;;;;;;5053266;28;20032;-66
2022/05/24 12:47:06;;;;;;;10.32;3.10;;;;;;;;;;5053345;28;20044;-69
2022/05/24 12:49:34;;;;;;;13.82;2.60;;;;;;;;;;5055121;28;20029;-66
2022/05/24 12:52:10;;;;;;;21.70;2.92;;;;;;;;;;5055130;28;20039;-66
2022/05/24 12:54:41;;;;;;;10.60;2.90;;;;;;;;;;5054165;28;20132;-66
2022/05/24 12:57:17;;;;;;;17.20;2.80;;;;;;;;;;5054915;28;20440;-66
2022/05/24 12:59:50;;;;;;;9.07;2.60;;;;;;;;;;5050994;28;20319;-66
2022/05/24 13:02:28;;;;;;;12.57;2.92;;;;;;;;;;5052080;28;20029;-65
2022/05/24 13:04:58;;;;;;;10.38;2.60;;;;;;;;;;5054982;28;20378;-65
2022/05/24 13:07:24;;;;;;;10.23;2.63;;;;;;;;;;5054271;28;20021;-64
2022/05/24 13:09:50;;;;;;;13.60;3.13;;;;;;;;;;5054673;28;20032;-65
2022/05/24 13:12:16;;;;;;;9.98;2.45;;;;;;;;;;5054529;28;20437;-65
2022/05/24 13:14:45;;;;;;;8.15;2.40;;;;;;;;;;5053003;28;20029;-67
2022/05/24 13:17:12;;;;;;;11.80;2.67;;;;;;;;;;5053778;28;20086;-65
2022/05/24 13:19:51;;;;;;;10.85;2.35;;;;;;;;;;5054314;28;20102;-65
2022/05/24 13:22:18;;;;;;;8.23;2.70;;;;;;;;;;5053619;28;20202;-66
2022/05/24 13:24:55;;;;;;;12.48;2.83;;;;;;;;;;5047797;28;20539;-66
2022/05/24 13:27:21;;;;;;;12.10;2.60;;;;;;;;;;5051664;28;20059;-65
2022/05/24 13:35:31;;;;;;;12.30;2.70;;;;;;;;;;5052879;28;20035;-64
2022/05/24 13:37:59;;;;;;;8.55;2.35;;;;;;;;;;5053033;28;20041;-65
2022/05/24 13:40:42;;;;;;;11.77;3.47;;;;;;;;;;5053647;28;20025;-65
2022/05/24 13:43:09;;;;;;;14.80;2.72;;;;;;;;;;5053810;28;20035;-64
2022/05/24 13:45:38;;;;;;;11.05;2.63;;;;;;;;;;5053043;28;20025;-64
2022/05/24 13:48:24;;;;;;;8.38;2.70;;;;;;;;;;5053629;28;20071;-65
2022/05/24 13:50:50;;;;;;;8.68;2.28;;;;;;;;;;5053670;28;20025;-65
2022/05/24 13:53:27;;;;;;;10.02;2.47;;;;;;;;;;5052988;28;20044;-64
2022/05/24 13:55:55;;;;;;;13.15;2.80;;;;;;;;;;5053710;28;20031;-64
2022/05/24 13:58:31;;;;;;;9.43;2.63;;;;;;;;;;5053093;28;20036;-64
2022/05/24 14:01:11;;;;;;;12.50;2.83;;;;;;;;;;5052931;28;20031;-64
2022/05/24 14:03:48;;;;;;;11.32;2.83;;;;;;;;;;5053214;28;20057;-65
2022/05/24 14:06:15;;;;;;;9.50;2.42;;;;;;;;;;5052434;28;20029;-64
2022/05/24 14:08:42;;;;;;;11.27;2.25;;;;;;;;;;5052693;28;20021;-65
2022/05/24 14:11:13;;;;;;;5.78;2.30;;;;;;;;;;5053372;28;20041;-64
2022/05/24 14:13:43;;;;;;;15.45;2.55;;;;;;;;;;5053008;28;20013;-64
2022/05/24 14:16:09;;;;;;;11.77;2.30;;;;;;;;;;5052944;28;20044;-64
2022/05/24 14:18:35;;;;;;;7.70;2.47;;;;;;;;;;5053072;28;20045;-63
2022/05/24 14:21:02;;;;;;;14.85;2.45;;;;;;;;;;5052571;28;20021;-64
2022/05/24 14:23:28;;;;;;;8.07;2.67;;;;;;;;;;5052754;28;20033;-64
2022/05/24 14:25:54;;;;;;;14.18;2.65;;;;;;;;;;5052983;28;20096;-64
2022/05/24 14:28:20;;;;;;;14.23;2.47;;;;;;;;;;5052995;28;20094;-64
2022/05/24 14:30:49;;;;;;;9.20;2.58;;;;;;;;;;5052497;28;20028;-64
2022/05/24 14:33:18;;;;;;;16.00;3.63;;;;;;;;;;5052816;28;20473;-64
2022/05/24 14:35:44;;;;;;;12.40;3.08;;;;;;;;;;5052946;28;20048;-63
2022/05/24 14:38:10;;;;;;;10.40;2.80;;;;;;;;;;5052715;28;20401;-63
2022/05/24 14:40:40;;;;;;;7.97;3.08;;;;;;;;;;5052876;28;20025;-66
2022/05/24 14:43:10;;;;;;;9.85;2.95;;;;;;;;;;5052755;28;20474;-66
2022/05/24 14:45:36;;;;;;;12.98;2.63;;;;;;;;;;5052339;28;20040;-65
2022/05/24 14:48:02;;;;;;;13.55;3.58;;;;;;;;;;5052706;28;20029;-65
2022/05/24 14:50:29;;;;;;;10.05;2.90;;;;;;;;;;5051865;28;20024;-66
2022/05/24 14:52:55;;;;;;;11.82;2.70;;;;;;;;;;5049438;28;20055;-66
2022/05/24 14:55:23;;;;;;;9.63;2.72;;;;;;;;;;5051293;28;20033;-66
2022/05/24 14:57:49;;;;;;;20.63;3.00;;;;;;;;;;5052333;28;20473;-66
2022/05/24 15:00:15;;;;;;;16.98;3.20;;;;;;;;;;5052281;28;20025;-64
2022/05/24 15:02:43;;;;;;;9.77;2.92;;;;;;;;;;5052465;28;20416;-65
2022/05/24 15:05:09;;;;;;;15.70;2.70;;;;;;;;;;5052232;28;20469;-64
2022/05/24 15:15:51;;;;;;;12.77;2.88;;;;;;;;;;5052942;28;20035;-64
2022/05/24 15:18:17;;;;;;;6.72;2.33;;;;;;;;;;5056788;28;20391;-63
2022/05/24 15:20:45;;;;;;;19.90;2.70;;;;;;;;;;5056594;28;20175;-68
2022/05/24 15:23:17;;;;;;;10.32;2.30;;;;;;;;;;5056559;28;20021;-63
2022/05/24 15:25:47;;;;;;;14.40;3.10;;;;;;;;;;5056647;28;20358;-63
2022/05/24 15:28:14;;;;;;;12.15;2.65;;;;;;;;;;5056526;28;20478;-63
2022/05/24 15:30:41;;;;;;;11.63;2.65;;;;;;;;;;5056356;28;20028;-63
2022/05/24 15:33:07;;;;;;;9.30;2.20;;;;;;;;;;5056349;28;20056;-62